sensor_id;sensor_type;location;lat;lon;timestamp;P1;durP1;ratioP1;P2;durP2;ratioP2
58928;SDS011;44713;53.378;10.022;2022-08-01T00:02:11;15.07;;;13.55;;
58928;SDS011;44713;53.378;10.022;2022-08-01T00:04:36;13.77;;;12.48;;
58928;SDS011;44713;53.378;10.022;2022-08-01T00:07:02;13.40;;;12.10;;
58928;SDS011;44713;53.378;10.022;2022-08-01T00:09:27;14.43;;;11.80;;
58928;SDS011;44713;53.378;10.022;2022-08-01T00:11:52;13.55;;;12.18;;
58928;SDS011;44713;53.378;10.022;2022-08-01T00:14:18;12.90;;;11.65;;
58928;SDS011;44713;53.378;10.022;2022-08-01T00:16:43;14.77;;;13.25;;
58928;SDS011;44713;53.378;10.022;2022-08-01T00:19:08;18.08;;;14.02;;
58928;SDS011;44713;53.378;10.022;2022-08-01T00:21:34;14.50;;;13.13;;
58928;SDS011;44713;53.378;10.022;2022-08-01T00:23:59;13.98;;;12.10;;
58928;SDS011;44713;53.378;10.022;2022-08-01T00:26:24;14.15;;;11.57;;
58928;SDS011;44713;53.378;10.022;2022-08-01T00:28:50;17.38;;;11.93;;
58928;SDS011;44713;53.378;10.022;2022-08-01T00:31:15;12.00;;;10.80;;
58928;SDS011;44713;53.378;10.022;2022-08-01T00:33:40;11.20;;;9.82;;
58928;SDS011;44713;53.378;10.022;2022-08-01T00:36:06;13.63;;;11.02;;
58928;SDS011;44713;53.378;10.022;2022-08-01T00:38:31;14.13;;;10.57;;
58928;SDS011;44713;53.378;10.022;2022-08-01T00:40:56;11.25;;;10.15;;
58928;SDS011;44713;53.378;10.022;2022-08-01T00:43:22;12.00;;;10.60;;
58928;SDS011;44713;53.378;10.022;2022-08-01T00:45:47;10.70;;;9.65;;
58928;SDS011;44713;53.378;10.022;2022-08-01T00:48:13;12.57;;;10.52;;
58928;SDS011;44713;53.378;10.022;2022-08-01T00:50:38;9.70;;;8.80;;
58928;SDS011;44713;53.378;10.022;2022-08-01T00:53:04;12.07;;;10.15;;
58928;SDS011;44713;53.378;10.022;2022-08-01T00:55:30;11.98;;;10.68;;
58928;SDS011;44713;53.378;10.022;2022-08-01T00:57:56;10.60;;;9.55;;
58928;SDS011;44713;53.378;10.022;2022-08-01T01:00:21;11.75;;;9.52;;
58928;SDS011;44713;53.378;10.022;2022-08-01T01:02:47;12.80;;;10.07;;
58928;SDS011;44713;53.378;10.022;2022-08-01T01:05:12;11.60;;;10.48;;
58928;SDS011;44713;53.378;10.022;2022-08-01T01:07:49;11.93;;;10.38;;
58928;SDS011;44713;53.378;10.022;2022-08-01T01:13:09;13.57;;;10.68;;
58928;SDS011;44713;53.378;10.022;2022-08-01T01:15:46;11.38;;;10.27;;
58928;SDS011;44713;53.378;10.022;2022-08-01T01:18:27;17.83;;;10.95;;
58928;SDS011;44713;53.378;10.022;2022-08-01T01:21:13;15.50;;;11.00;;
58928;SDS011;44713;53.378;10.022;2022-08-01T01:26:59;11.60;;;10.07;;
58928;SDS011;44713;53.378;10.022;2022-08-01T01:29:32;14.63;;;10.93;;
58928;SDS011;44713;53.378;10.022;2022-08-01T01:34:32;11.68;;;8.85;;
58928;SDS011;44713;53.378;10.022;2022-08-01T01:37:01;12.00;;;9.10;;
58928;SDS011;44713;53.378;10.022;2022-08-01T01:39:28;11.93;;;9.13;;
58928;SDS011;44713;53.378;10.022;2022-08-01T01:41:55;12.32;;;8.57;;
58928;SDS011;44713;53.378;10.022;2022-08-01T01:44:22;11.30;;;8.57;;
58928;SDS011;44713;53.378;10.022;2022-08-01T01:46:50;10.20;;;8.70;;
58928;SDS011;44713;53.378;10.022;2022-08-01T01:49:17;11.00;;;8.43;;
58928;SDS011;44713;53.378;10.022;2022-08-01T01:51:47;12.52;;;8.15;;
58928;SDS011;44713;53.378;10.022;2022-08-01T01:54:15;9.85;;;7.95;;
58928;SDS011;44713;53.378;10.022;2022-08-01T01:56:40;9.73;;;8.02;;
58928;SDS011;44713;53.378;10.022;2022-08-01T01:59:14;10.05;;;8.65;;
58928;SDS011;44713;53.378;10.022;2022-08-01T02:01:43;12.40;;;7.90;;
58928;SDS011;44713;53.378;10.022;2022-08-01T02:04:09;9.57;;;8.20;;
58928;SDS011;44713;53.378;10.022;2022-08-01T02:06:36;12.70;;;8.32;;
58928;SDS011;44713;53.378;10.022;2022-08-01T02:09:03;8.40;;;7.28;;
58928;SDS011;44713;53.378;10.022;2022-08-01T02:11:29;11.23;;;6.95;;
58928;SDS011;44713;53.378;10.022;2022-08-01T02:13:59;8.93;;;7.60;;
58928;SDS011;44713;53.378;10.022;2022-08-01T02:16:28;9.93;;;7.45;;
58928;SDS011;44713;53.378;10.022;2022-08-01T02:18:56;8.52;;;7.50;;
58928;SDS011;44713;53.378;10.022;2022-08-01T02:21:27;10.20;;;7.40;;
58928;SDS011;44713;53.378;10.022;2022-08-01T02:23:57;11.75;;;6.32;;
58928;SDS011;44713;53.378;10.022;2022-08-01T02:26:28;9.05;;;5.97;;
58928;SDS011;44713;53.378;10.022;2022-08-01T02:28:59;6.85;;;6.20;;
58928;SDS011;44713;53.378;10.022;2022-08-01T02:31:27;6.53;;;5.47;;
58928;SDS011;44713;53.378;10.022;2022-08-01T02:33:59;9.00;;;6.38;;
58928;SDS011;44713;53.378;10.022;2022-08-01T02:36:28;8.93;;;5.95;;
58928;SDS011;44713;53.378;10.022;2022-08-01T02:38:56;9.30;;;6.10;;
58928;SDS011;44713;53.378;10.022;2022-08-01T02:41:23;6.93;;;6.15;;
58928;SDS011;44713;53.378;10.022;2022-08-01T02:43:51;5.97;;;5.32;;
58928;SDS011;44713;53.378;10.022;2022-08-01T02:46:22;5.75;;;5.25;;
58928;SDS011;44713;53.378;10.022;2022-08-01T02:48:52;5.55;;;5.03;;
58928;SDS011;44713;53.378;10.022;2022-08-01T02:51:23;8.32;;;5.20;;
58928;SDS011;44713;53.378;10.022;2022-08-01T02:53:50;5.28;;;4.80;;
58928;SDS011;44713;53.378;10.022;2022-08-01T02:56:17;8.48;;;5.45;;
58928;SDS011;44713;53.378;10.022;2022-08-01T02:58:45;6.22;;;5.05;;
58928;SDS011;44713;53.378;10.022;2022-08-01T03:01:13;6.15;;;5.45;;
58928;SDS011;44713;53.378;10.022;2022-08-01T03:03:40;6.55;;;4.93;;
58928;SDS011;44713;53.378;10.022;2022-08-01T03:06:05;6.85;;;5.38;;
58928;SDS011;44713;53.378;10.022;2022-08-01T03:08:32;5.85;;;5.15;;
58928;SDS011;44713;53.378;10.022;2022-08-01T03:10:59;6.57;;;4.40;;
58928;SDS011;44713;53.378;10.022;2022-08-01T03:13:26;6.15;;;4.97;;
58928;SDS011;44713;53.378;10.022;2022-08-01T03:15:53;6.15;;;5.55;;
58928;SDS011;44713;53.378;10.022;2022-08-01T03:18:20;6.85;;;5.00;;
58928;SDS011;44713;53.378;10.022;2022-08-01T03:20:49;5.03;;;4.53;;
58928;SDS011;44713;53.378;10.022;2022-08-01T03:23:15;6.25;;;5.05;;
58928;SDS011;44713;53.378;10.022;2022-08-01T03:25:43;4.68;;;4.15;;
58928;SDS011;44713;53.378;10.022;2022-08-01T03:28:10;5.63;;;4.55;;
58928;SDS011;44713;53.378;10.022;2022-08-01T03:30:38;6.13;;;4.15;;
58928;SDS011;44713;53.378;10.022;2022-08-01T03:33:04;4.57;;;3.83;;
58928;SDS011;44713;53.378;10.022;2022-08-01T03:35:30;8.20;;;3.67;;
58928;SDS011;44713;53.378;10.022;2022-08-01T03:37:59;7.50;;;4.40;;
58928;SDS011;44713;53.378;10.022;2022-08-01T03:40:35;4.75;;;4.25;;
58928;SDS011;44713;53.378;10.022;2022-08-01T03:43:05;6.72;;;4.30;;
58928;SDS011;44713;53.378;10.022;2022-08-01T03:45:36;4.40;;;3.65;;
58928;SDS011;44713;53.378;10.022;2022-08-01T03:48:13;5.18;;;3.92;;
58928;SDS011;44713;53.378;10.022;2022-08-01T03:50:41;4.72;;;4.18;;
58928;SDS011;44713;53.378;10.022;2022-08-01T03:53:10;5.45;;;4.30;;
58928;SDS011;44713;53.378;10.022;2022-08-01T03:55:37;4.30;;;3.90;;
58928;SDS011;44713;53.378;10.022;2022-08-01T03:58:06;5.05;;;4.03;;
58928;SDS011;44713;53.378;10.022;2022-08-01T04:00:33;4.53;;;4.10;;
58928;SDS011;44713;53.378;10.022;2022-08-01T04:03:03;8.73;;;3.47;;
58928;SDS011;44713;53.378;10.022;2022-08-01T04:05:29;4.38;;;3.80;;
58928;SDS011;44713;53.378;10.022;2022-08-01T04:07:56;4.38;;;3.10;;
58928;SDS011;44713;53.378;10.022;2022-08-01T04:10:22;4.68;;;2.88;;
58928;SDS011;44713;53.378;10.022;2022-08-01T04:12:48;4.28;;;3.08;;
58928;SDS011;44713;53.378;10.022;2022-08-01T04:15:14;3.92;;;2.70;;
58928;SDS011;44713;53.378;10.022;2022-08-01T04:17:40;3.90;;;2.78;;
58928;SDS011;44713;53.378;10.022;2022-08-01T04:20:05;4.72;;;2.60;;
58928;SDS011;44713;53.378;10.022;2022-08-01T04:22:31;2.72;;;2.45;;
58928;SDS011;44713;53.378;10.022;2022-08-01T04:24:57;5.13;;;2.55;;
58928;SDS011;44713;53.378;10.022;2022-08-01T04:27:29;2.70;;;2.50;;
58928;SDS011;44713;53.378;10.022;2022-08-01T04:29:58;2.38;;;2.17;;
58928;SDS011;44713;53.378;10.022;2022-08-01T04:32:26;2.72;;;2.30;;
58928;SDS011;44713;53.378;10.022;2022-08-01T04:34:55;4.45;;;2.22;;
58928;SDS011;44713;53.378;10.022;2022-08-01T04:37:23;2.92;;;2.15;;
58928;SDS011;44713;53.378;10.022;2022-08-01T04:39:50;2.85;;;2.50;;
58928;SDS011;44713;53.378;10.022;2022-08-01T04:42:17;4.18;;;2.10;;
58928;SDS011;44713;53.378;10.022;2022-08-01T04:44:43;2.90;;;2.05;;
58928;SDS011;44713;53.378;10.022;2022-08-01T04:47:09;2.13;;;1.90;;
58928;SDS011;44713;53.378;10.022;2022-08-01T04:49:35;3.97;;;2.10;;
58928;SDS011;44713;53.378;10.022;2022-08-01T04:52:01;5.45;;;2.00;;
58928;SDS011;44713;53.378;10.022;2022-08-01T04:54:26;3.55;;;1.70;;
58928;SDS011;44713;53.378;10.022;2022-08-01T04:56:53;4.30;;;1.75;;
58928;SDS011;44713;53.378;10.022;2022-08-01T04:59:23;2.70;;;1.48;;
58928;SDS011;44713;53.378;10.022;2022-08-01T05:02:14;2.90;;;1.35;;
58928;SDS011;44713;53.378;10.022;2022-08-01T05:04:41;1.80;;;0.85;;
58928;SDS011;44713;53.378;10.022;2022-08-01T05:07:07;3.55;;;1.00;;
58928;SDS011;44713;53.378;10.022;2022-08-01T05:09:34;1.25;;;1.10;;
58928;SDS011;44713;53.378;10.022;2022-08-01T05:12:01;2.97;;;1.00;;
58928;SDS011;44713;53.378;10.022;2022-08-01T05:14:28;2.10;;;1.00;;
58928;SDS011;44713;53.378;10.022;2022-08-01T05:16:56;2.08;;;1.00;;
58928;SDS011;44713;53.378;10.022;2022-08-01T05:19:23;4.85;;;1.30;;
58928;SDS011;44713;53.378;10.022;2022-08-01T05:21:49;1.60;;;1.33;;
58928;SDS011;44713;53.378;10.022;2022-08-01T05:24:14;3.95;;;1.48;;
58928;SDS011;44713;53.378;10.022;2022-08-01T05:26:39;2.08;;;1.30;;
58928;SDS011;44713;53.378;10.022;2022-08-01T05:29:05;1.38;;;1.27;;
58928;SDS011;44713;53.378;10.022;2022-08-01T05:31:30;3.33;;;0.85;;
58928;SDS011;44713;53.378;10.022;2022-08-01T05:33:59;1.58;;;1.13;;
58928;SDS011;44713;53.378;10.022;2022-08-01T05:36:28;1.58;;;1.00;;
58928;SDS011;44713;53.378;10.022;2022-08-01T05:38:54;1.88;;;1.08;;
58928;SDS011;44713;53.378;10.022;2022-08-01T05:41:19;1.55;;;0.90;;
58928;SDS011;44713;53.378;10.022;2022-08-01T05:43:45;5.00;;;1.20;;
58928;SDS011;44713;53.378;10.022;2022-08-01T05:46:11;1.25;;;1.02;;
58928;SDS011;44713;53.378;10.022;2022-08-01T05:48:36;1.98;;;1.50;;
58928;SDS011;44713;53.378;10.022;2022-08-01T05:51:02;2.22;;;1.88;;
58928;SDS011;44713;53.378;10.022;2022-08-01T05:53:27;1.70;;;1.60;;
58928;SDS011;44713;53.378;10.022;2022-08-01T05:55:53;4.20;;;1.85;;
58928;SDS011;44713;53.378;10.022;2022-08-01T05:58:18;3.55;;;2.05;;
58928;SDS011;44713;53.378;10.022;2022-08-01T06:00:43;2.75;;;1.65;;
58928;SDS011;44713;53.378;10.022;2022-08-01T06:03:09;4.85;;;2.20;;
58928;SDS011;44713;53.378;10.022;2022-08-01T06:05:36;4.30;;;2.13;;
58928;SDS011;44713;53.378;10.022;2022-08-01T06:08:02;4.40;;;2.10;;
58928;SDS011;44713;53.378;10.022;2022-08-01T06:10:27;3.10;;;2.20;;
58928;SDS011;44713;53.378;10.022;2022-08-01T06:12:53;4.22;;;2.30;;
58928;SDS011;44713;53.378;10.022;2022-08-01T06:15:18;2.53;;;2.10;;
58928;SDS011;44713;53.378;10.022;2022-08-01T06:17:43;3.45;;;2.30;;
58928;SDS011;44713;53.378;10.022;2022-08-01T06:20:09;5.13;;;2.30;;
58928;SDS011;44713;53.378;10.022;2022-08-01T06:22:35;3.55;;;2.13;;
58928;SDS011;44713;53.378;10.022;2022-08-01T06:25:00;5.60;;;2.08;;
58928;SDS011;44713;53.378;10.022;2022-08-01T06:27:25;5.30;;;2.40;;
58928;SDS011;44713;53.378;10.022;2022-08-01T06:29:51;5.13;;;1.83;;
58928;SDS011;44713;53.378;10.022;2022-08-01T06:32:18;3.72;;;1.65;;
58928;SDS011;44713;53.378;10.022;2022-08-01T06:34:44;6.13;;;2.20;;
58928;SDS011;44713;53.378;10.022;2022-08-01T06:37:09;5.00;;;1.92;;
58928;SDS011;44713;53.378;10.022;2022-08-01T06:39:35;4.43;;;1.70;;
58928;SDS011;44713;53.378;10.022;2022-08-01T06:42:01;4.07;;;1.73;;
58928;SDS011;44713;53.378;10.022;2022-08-01T06:44:26;4.63;;;1.65;;
58928;SDS011;44713;53.378;10.022;2022-08-01T06:46:51;4.70;;;1.80;;
58928;SDS011;44713;53.378;10.022;2022-08-01T06:49:17;4.97;;;1.80;;
58928;SDS011;44713;53.378;10.022;2022-08-01T06:51:42;4.82;;;2.60;;
58928;SDS011;44713;53.378;10.022;2022-08-01T06:54:07;6.10;;;2.80;;
58928;SDS011;44713;53.378;10.022;2022-08-01T06:56:32;2.92;;;2.20;;
58928;SDS011;44713;53.378;10.022;2022-08-01T06:59:00;6.85;;;2.97;;
58928;SDS011;44713;53.378;10.022;2022-08-01T07:01:26;6.28;;;2.92;;
58928;SDS011;44713;53.378;10.022;2022-08-01T07:03:53;8.90;;;2.50;;
58928;SDS011;44713;53.378;10.022;2022-08-01T07:06:19;6.22;;;2.20;;
58928;SDS011;44713;53.378;10.022;2022-08-01T07:08:45;6.22;;;2.30;;
58928;SDS011;44713;53.378;10.022;2022-08-01T07:11:10;6.45;;;2.17;;
58928;SDS011;44713;53.378;10.022;2022-08-01T07:13:35;6.05;;;1.83;;
58928;SDS011;44713;53.378;10.022;2022-08-01T07:16:00;8.25;;;2.33;;
58928;SDS011;44713;53.378;10.022;2022-08-01T07:18:26;4.75;;;1.70;;
58928;SDS011;44713;53.378;10.022;2022-08-01T07:20:51;9.07;;;1.90;;
58928;SDS011;44713;53.378;10.022;2022-08-01T07:23:16;9.90;;;2.05;;
58928;SDS011;44713;53.378;10.022;2022-08-01T07:25:42;4.18;;;1.65;;
58928;SDS011;44713;53.378;10.022;2022-08-01T07:28:08;3.83;;;1.85;;
58928;SDS011;44713;53.378;10.022;2022-08-01T07:30:33;5.65;;;1.65;;
58928;SDS011;44713;53.378;10.022;2022-08-01T07:32:58;7.28;;;2.42;;
58928;SDS011;44713;53.378;10.022;2022-08-01T07:35:24;8.98;;;1.88;;
58928;SDS011;44713;53.378;10.022;2022-08-01T07:37:49;7.25;;;2.22;;
58928;SDS011;44713;53.378;10.022;2022-08-01T07:40:16;8.80;;;1.92;;
58928;SDS011;44713;53.378;10.022;2022-08-01T07:42:42;9.25;;;2.03;;
58928;SDS011;44713;53.378;10.022;2022-08-01T07:45:10;6.20;;;2.03;;
58928;SDS011;44713;53.378;10.022;2022-08-01T07:47:36;11.43;;;2.80;;
58928;SDS011;44713;53.378;10.022;2022-08-01T07:50:03;8.88;;;2.95;;
58928;SDS011;44713;53.378;10.022;2022-08-01T07:52:29;12.20;;;2.80;;
58928;SDS011;44713;53.378;10.022;2022-08-01T07:54:55;16.00;;;2.75;;
58928;SDS011;44713;53.378;10.022;2022-08-01T07:57:21;11.95;;;2.47;;
58928;SDS011;44713;53.378;10.022;2022-08-01T07:59:47;11.70;;;2.55;;
58928;SDS011;44713;53.378;10.022;2022-08-01T08:02:12;9.52;;;2.47;;
58928;SDS011;44713;53.378;10.022;2022-08-01T08:04:37;15.15;;;2.97;;
58928;SDS011;44713;53.378;10.022;2022-08-01T08:07:04;13.93;;;3.10;;
58928;SDS011;44713;53.378;10.022;2022-08-01T08:09:29;10.75;;;3.70;;
58928;SDS011;44713;53.378;10.022;2022-08-01T08:11:54;15.25;;;2.95;;
58928;SDS011;44713;53.378;10.022;2022-08-01T08:14:20;15.95;;;3.40;;
58928;SDS011;44713;53.378;10.022;2022-08-01T08:16:47;13.27;;;2.80;;
58928;SDS011;44713;53.378;10.022;2022-08-01T08:19:13;20.08;;;3.53;;
58928;SDS011;44713;53.378;10.022;2022-08-01T08:21:38;13.68;;;3.50;;
58928;SDS011;44713;53.378;10.022;2022-08-01T08:24:04;15.77;;;3.58;;
58928;SDS011;44713;53.378;10.022;2022-08-01T08:26:45;13.65;;;3.88;;
58928;SDS011;44713;53.378;10.022;2022-08-01T08:29:14;12.82;;;3.65;;
58928;SDS011;44713;53.378;10.022;2022-08-01T08:31:40;19.83;;;3.70;;
58928;SDS011;44713;53.378;10.022;2022-08-01T08:34:06;18.65;;;3.35;;
58928;SDS011;44713;53.378;10.022;2022-08-01T08:36:31;16.83;;;3.78;;
58928;SDS011;44713;53.378;10.022;2022-08-01T08:38:58;13.02;;;3.75;;
58928;SDS011;44713;53.378;10.022;2022-08-01T08:41:28;15.38;;;3.92;;
58928;SDS011;44713;53.378;10.022;2022-08-01T08:43:55;13.35;;;2.83;;
58928;SDS011;44713;53.378;10.022;2022-08-01T08:46:22;12.20;;;3.42;;
58928;SDS011;44713;53.378;10.022;2022-08-01T08:48:49;13.02;;;3.05;;
58928;SDS011;44713;53.378;10.022;2022-08-01T08:51:16;10.70;;;2.70;;
58928;SDS011;44713;53.378;10.022;2022-08-01T08:53:43;12.00;;;2.85;;
58928;SDS011;44713;53.378;10.022;2022-08-01T08:56:10;14.15;;;2.67;;
58928;SDS011;44713;53.378;10.022;2022-08-01T08:58:37;14.60;;;2.60;;
58928;SDS011;44713;53.378;10.022;2022-08-01T09:01:06;14.13;;;2.78;;
58928;SDS011;44713;53.378;10.022;2022-08-01T09:03:35;10.60;;;2.50;;
58928;SDS011;44713;53.378;10.022;2022-08-01T09:06:01;11.10;;;2.50;;
58928;SDS011;44713;53.378;10.022;2022-08-01T09:08:28;13.32;;;2.00;;
58928;SDS011;44713;53.378;10.022;2022-08-01T09:10:53;13.55;;;2.13;;
58928;SDS011;44713;53.378;10.022;2022-08-01T09:13:19;8.25;;;2.08;;
58928;SDS011;44713;53.378;10.022;2022-08-01T09:15:45;6.63;;;2.10;;
58928;SDS011;44713;53.378;10.022;2022-08-01T09:23:34;13.93;;;2.75;;
58928;SDS011;44713;53.378;10.022;2022-08-01T09:26:14;10.60;;;2.40;;
58928;SDS011;44713;53.378;10.022;2022-08-01T09:28:41;11.45;;;2.30;;
58928;SDS011;44713;53.378;10.022;2022-08-01T09:31:14;10.88;;;2.95;;
58928;SDS011;44713;53.378;10.022;2022-08-01T09:33:48;13.52;;;3.13;;
58928;SDS011;44713;53.378;10.022;2022-08-01T09:36:14;9.07;;;2.65;;
58928;SDS011;44713;53.378;10.022;2022-08-01T09:38:40;11.77;;;2.70;;
58928;SDS011;44713;53.378;10.022;2022-08-01T09:41:05;9.13;;;2.90;;
58928;SDS011;44713;53.378;10.022;2022-08-01T09:43:32;10.73;;;2.50;;
58928;SDS011;44713;53.378;10.022;2022-08-01T09:45:58;10.20;;;2.33;;
58928;SDS011;44713;53.378;10.022;2022-08-01T09:48:25;8.75;;;2.45;;
58928;SDS011;44713;53.378;10.022;2022-08-01T09:50:52;9.70;;;2.22;;
58928;SDS011;44713;53.378;10.022;2022-08-01T09:53:18;10.02;;;2.72;;
58928;SDS011;44713;53.378;10.022;2022-08-01T09:55:44;10.05;;;2.30;;
58928;SDS011;44713;53.378;10.022;2022-08-01T09:58:10;12.13;;;2.60;;
58928;SDS011;44713;53.378;10.022;2022-08-01T10:00:36;9.93;;;2.78;;
58928;SDS011;44713;53.378;10.022;2022-08-01T10:03:23;11.35;;;2.67;;
58928;SDS011;44713;53.378;10.022;2022-08-01T10:05:49;9.25;;;2.05;;
58928;SDS011;44713;53.378;10.022;2022-08-01T10:08:16;10.25;;;2.00;;
58928;SDS011;44713;53.378;10.022;2022-08-01T10:10:43;8.48;;;1.90;;
58928;SDS011;44713;53.378;10.022;2022-08-01T10:13:35;7.45;;;1.77;;
58928;SDS011;44713;53.378;10.022;2022-08-01T10:16:01;8.82;;;1.90;;
58928;SDS011;44713;53.378;10.022;2022-08-01T10:18:28;8.27;;;1.90;;
58928;SDS011;44713;53.378;10.022;2022-08-01T10:20:56;5.95;;;1.95;;
58928;SDS011;44713;53.378;10.022;2022-08-01T10:23:24;8.63;;;1.92;;
58928;SDS011;44713;53.378;10.022;2022-08-01T10:25:51;6.32;;;1.90;;
58928;SDS011;44713;53.378;10.022;2022-08-01T10:28:19;9.85;;;1.73;;
58928;SDS011;44713;53.378;10.022;2022-08-01T10:30:45;6.65;;;1.95;;
58928;SDS011;44713;53.378;10.022;2022-08-01T10:33:11;6.30;;;1.83;;
58928;SDS011;44713;53.378;10.022;2022-08-01T10:35:39;8.93;;;1.60;;
58928;SDS011;44713;53.378;10.022;2022-08-01T10:38:04;9.20;;;2.20;;
58928;SDS011;44713;53.378;10.022;2022-08-01T10:40:30;7.90;;;1.30;;
58928;SDS011;44713;53.378;10.022;2022-08-01T10:42:56;7.60;;;1.58;;
58928;SDS011;44713;53.378;10.022;2022-08-01T10:45:22;12.43;;;1.70;;
58928;SDS011;44713;53.378;10.022;2022-08-01T10:48:06;6.28;;;1.67;;
58928;SDS011;44713;53.378;10.022;2022-08-01T10:50:38;10.15;;;2.15;;
58928;SDS011;44713;53.378;10.022;2022-08-01T10:53:17;6.55;;;1.23;;
58928;SDS011;44713;53.378;10.022;2022-08-01T10:58:22;7.70;;;1.67;;
58928;SDS011;44713;53.378;10.022;2022-08-01T11:01:11;7.30;;;1.40;;
58928;SDS011;44713;53.378;10.022;2022-08-01T11:03:44;5.28;;;1.17;;
58928;SDS011;44713;53.378;10.022;2022-08-01T11:06:23;6.25;;;1.20;;
58928;SDS011;44713;53.378;10.022;2022-08-01T11:08:51;8.48;;;1.40;;
58928;SDS011;44713;53.378;10.022;2022-08-01T11:11:18;7.22;;;1.40;;
58928;SDS011;44713;53.378;10.022;2022-08-01T11:16:33;8.23;;;1.70;;
58928;SDS011;44713;53.378;10.022;2022-08-01T11:19:01;10.05;;;1.85;;
58928;SDS011;44713;53.378;10.022;2022-08-01T11:27:17;5.05;;;1.40;;
58928;SDS011;44713;53.378;10.022;2022-08-01T11:32:54;7.13;;;1.80;;
58928;SDS011;44713;53.378;10.022;2022-08-01T11:35:22;4.72;;;1.50;;
58928;SDS011;44713;53.378;10.022;2022-08-01T11:37:50;7.68;;;1.40;;
58928;SDS011;44713;53.378;10.022;2022-08-01T11:40:20;4.25;;;1.27;;
58928;SDS011;44713;53.378;10.022;2022-08-01T11:43:35;4.53;;;1.33;;
58928;SDS011;44713;53.378;10.022;2022-08-01T11:45:48;9.15;;;1.75;;
58928;SDS011;44713;53.378;10.022;2022-08-01T11:48:20;6.90;;;1.10;;
58928;SDS011;44713;53.378;10.022;2022-08-01T11:50:49;6.63;;;1.23;;
58928;SDS011;44713;53.378;10.022;2022-08-01T11:53:15;6.00;;;1.23;;
58928;SDS011;44713;53.378;10.022;2022-08-01T11:55:47;6.50;;;1.40;;
58928;SDS011;44713;53.378;10.022;2022-08-01T11:58:14;6.75;;;1.50;;
58928;SDS011;44713;53.378;10.022;2022-08-01T12:00:41;5.32;;;1.15;;
58928;SDS011;44713;53.378;10.022;2022-08-01T12:03:07;5.63;;;1.40;;
58928;SDS011;44713;53.378;10.022;2022-08-01T12:05:34;9.38;;;1.40;;
58928;SDS011;44713;53.378;10.022;2022-08-01T12:08:02;6.55;;;1.17;;
58928;SDS011;44713;53.378;10.022;2022-08-01T12:10:37;5.22;;;1.33;;
58928;SDS011;44713;53.378;10.022;2022-08-01T12:13:04;5.78;;;1.20;;
58928;SDS011;44713;53.378;10.022;2022-08-01T12:15:35;5.80;;;1.30;;
58928;SDS011;44713;53.378;10.022;2022-08-01T12:18:03;6.72;;;1.10;;
58928;SDS011;44713;53.378;10.022;2022-08-01T12:20:31;6.25;;;1.40;;
58928;SDS011;44713;53.378;10.022;2022-08-01T12:22:59;11.38;;;1.40;;
58928;SDS011;44713;53.378;10.022;2022-08-01T12:25:28;6.18;;;0.93;;
58928;SDS011;44713;53.378;10.022;2022-08-01T12:27:54;3.75;;;0.95;;
58928;SDS011;44713;53.378;10.022;2022-08-01T12:30:20;4.05;;;0.95;;
58928;SDS011;44713;53.378;10.022;2022-08-01T12:32:48;9.45;;;1.75;;
58928;SDS011;44713;53.378;10.022;2022-08-01T12:35:15;6.55;;;1.10;;
58928;SDS011;44713;53.378;10.022;2022-08-01T12:37:43;4.28;;;1.38;;
58928;SDS011;44713;53.378;10.022;2022-08-01T12:40:11;6.22;;;1.33;;
58928;SDS011;44713;53.378;10.022;2022-08-01T12:42:38;9.63;;;1.20;;
58928;SDS011;44713;53.378;10.022;2022-08-01T12:45:05;4.88;;;1.30;;
58928;SDS011;44713;53.378;10.022;2022-08-01T12:47:32;8.18;;;1.15;;
58928;SDS011;44713;53.378;10.022;2022-08-01T12:49:58;4.95;;;0.90;;
58928;SDS011;44713;53.378;10.022;2022-08-01T12:52:23;7.03;;;1.40;;
58928;SDS011;44713;53.378;10.022;2022-08-01T12:57:40;3.63;;;1.05;;
58928;SDS011;44713;53.378;10.022;2022-08-01T13:00:14;6.43;;;1.20;;
58928;SDS011;44713;53.378;10.022;2022-08-01T13:02:43;5.53;;;1.15;;
58928;SDS011;44713;53.378;10.022;2022-08-01T13:05:10;6.63;;;1.30;;
58928;SDS011;44713;53.378;10.022;2022-08-01T13:07:40;5.15;;;1.00;;
58928;SDS011;44713;53.378;10.022;2022-08-01T13:10:09;5.60;;;1.13;;
58928;SDS011;44713;53.378;10.022;2022-08-01T13:12:36;6.20;;;1.50;;
58928;SDS011;44713;53.378;10.022;2022-08-01T13:15:22;7.20;;;1.50;;
58928;SDS011;44713;53.378;10.022;2022-08-01T13:17:52;10.48;;;1.50;;
58928;SDS011;44713;53.378;10.022;2022-08-01T13:20:22;4.35;;;1.00;;
58928;SDS011;44713;53.378;10.022;2022-08-01T13:22:48;3.40;;;0.82;;
58928;SDS011;44713;53.378;10.022;2022-08-01T13:25:13;7.85;;;1.38;;
58928;SDS011;44713;53.378;10.022;2022-08-01T13:27:41;8.32;;;1.20;;
58928;SDS011;44713;53.378;10.022;2022-08-01T13:30:11;8.52;;;1.58;;
58928;SDS011;44713;53.378;10.022;2022-08-01T13:32:36;10.57;;;1.20;;
58928;SDS011;44713;53.378;10.022;2022-08-01T13:35:03;11.32;;;1.42;;
58928;SDS011;44713;53.378;10.022;2022-08-01T13:37:30;9.38;;;1.50;;
58928;SDS011;44713;53.378;10.022;2022-08-01T13:39:55;4.65;;;1.30;;
58928;SDS011;44713;53.378;10.022;2022-08-01T13:42:20;6.35;;;1.30;;
58928;SDS011;44713;53.378;10.022;2022-08-01T13:44:47;7.80;;;1.48;;
58928;SDS011;44713;53.378;10.022;2022-08-01T13:47:12;5.65;;;1.45;;
58928;SDS011;44713;53.378;10.022;2022-08-01T13:49:38;5.78;;;1.27;;
58928;SDS011;44713;53.378;10.022;2022-08-01T13:52:04;5.70;;;1.40;;
58928;SDS011;44713;53.378;10.022;2022-08-01T13:54:32;4.03;;;1.20;;
58928;SDS011;44713;53.378;10.022;2022-08-01T13:56:58;5.30;;;1.13;;
58928;SDS011;44713;53.378;10.022;2022-08-01T13:59:23;4.05;;;1.25;;
58928;SDS011;44713;53.378;10.022;2022-08-01T14:01:49;4.20;;;0.90;;
58928;SDS011;44713;53.378;10.022;2022-08-01T14:04:15;5.28;;;0.98;;
58928;SDS011;44713;53.378;10.022;2022-08-01T14:06:40;5.38;;;1.00;;
58928;SDS011;44713;53.378;10.022;2022-08-01T14:09:06;3.55;;;1.08;;
58928;SDS011;44713;53.378;10.022;2022-08-01T14:11:31;6.90;;;1.33;;
58928;SDS011;44713;53.378;10.022;2022-08-01T14:13:57;6.63;;;1.33;;
58928;SDS011;44713;53.378;10.022;2022-08-01T14:16:23;6.80;;;0.80;;
58928;SDS011;44713;53.378;10.022;2022-08-01T14:18:48;6.57;;;1.10;;
58928;SDS011;44713;53.378;10.022;2022-08-01T14:21:14;6.97;;;1.20;;
58928;SDS011;44713;53.378;10.022;2022-08-01T14:23:40;5.43;;;1.15;;
58928;SDS011;44713;53.378;10.022;2022-08-01T14:26:06;6.70;;;1.38;;
58928;SDS011;44713;53.378;10.022;2022-08-01T14:28:31;6.70;;;1.02;;
58928;SDS011;44713;53.378;10.022;2022-08-01T14:30:58;6.43;;;1.20;;
58928;SDS011;44713;53.378;10.022;2022-08-01T14:33:24;8.20;;;1.10;;
58928;SDS011;44713;53.378;10.022;2022-08-01T14:35:51;8.98;;;1.08;;
58928;SDS011;44713;53.378;10.022;2022-08-01T14:38:16;5.20;;;1.23;;
58928;SDS011;44713;53.378;10.022;2022-08-01T14:40:41;5.78;;;1.30;;
58928;SDS011;44713;53.378;10.022;2022-08-01T14:43:07;2.70;;;0.80;;
58928;SDS011;44713;53.378;10.022;2022-08-01T14:45:32;7.90;;;1.10;;
58928;SDS011;44713;53.378;10.022;2022-08-01T14:47:58;7.10;;;1.00;;
58928;SDS011;44713;53.378;10.022;2022-08-01T14:50:24;9.38;;;1.25;;
58928;SDS011;44713;53.378;10.022;2022-08-01T14:52:52;5.72;;;1.13;;
58928;SDS011;44713;53.378;10.022;2022-08-01T14:55:17;5.25;;;1.08;;
58928;SDS011;44713;53.378;10.022;2022-08-01T14:57:43;7.63;;;1.45;;
58928;SDS011;44713;53.378;10.022;2022-08-01T15:00:08;4.88;;;1.13;;
58928;SDS011;44713;53.378;10.022;2022-08-01T15:02:38;5.78;;;1.10;;
58928;SDS011;44713;53.378;10.022;2022-08-01T15:05:04;5.35;;;1.10;;